createdAt,value
2023-01-07T00:00:52.836Z,83.40
2023-01-07T00:03:19.893Z,83.30
2023-01-07T00:05:46.251Z,83.54
2023-01-07T00:08:12.661Z,83.38
2023-01-07T00:10:39.017Z,83.25
2023-01-07T00:13:05.356Z,83.41
2023-01-07T00:15:31.717Z,83.07
2023-01-07T00:17:58.091Z,83.28
2023-01-07T00:20:24.496Z,83.30
2023-01-07T00:22:51.378Z,83.18
2023-01-07T00:25:17.716Z,83.39
2023-01-07T00:27:44.061Z,83.37
2023-01-07T00:30:11.134Z,83.34
2023-01-07T00:32:55.804Z,83.59
2023-01-07T00:35:24.680Z,83.38
2023-01-07T00:37:52.669Z,83.25
2023-01-07T00:40:19.793Z,83.32
2023-01-07T00:42:55.496Z,83.36
2023-01-07T00:45:22.434Z,83.44
2023-01-07T00:47:49.386Z,83.59
2023-01-07T00:50:15.809Z,83.85
2023-01-07T00:52:42.138Z,83.63
2023-01-07T00:55:10.941Z,83.52
2023-01-07T00:57:37.321Z,83.00
2023-01-07T01:00:03.859Z,83.00
2023-01-07T01:02:30.235Z,83.04
2023-01-07T01:04:56.579Z,83.00
2023-01-07T01:07:22.891Z,83.43
2023-01-07T01:09:49.576Z,83.10
2023-01-07T01:12:15.889Z,82.85
2023-01-07T01:14:42.289Z,82.79
2023-01-07T01:17:08.661Z,82.27
2023-01-07T01:19:35.083Z,82.56
2023-01-07T01:22:01.447Z,82.46
2023-01-07T01:24:27.853Z,82.42
2023-01-07T01:26:54.269Z,83.03
2023-01-07T01:29:20.709Z,82.59
2023-01-07T01:31:48.426Z,82.40
2023-01-07T01:34:14.822Z,82.60
2023-01-07T01:36:41.285Z,82.82
2023-01-07T01:39:07.619Z,82.45
2023-01-07T01:41:34.354Z,82.40
2023-01-07T01:44:00.834Z,82.02
2023-01-07T01:46:35.210Z,82.02
2023-01-07T01:49:37.478Z,82.56
2023-01-07T01:52:08.828Z,82.12
2023-01-07T01:54:35.338Z,82.58
2023-01-07T01:57:03.032Z,82.51
2023-01-07T01:59:31.179Z,82.55
2023-01-07T02:01:57.645Z,82.30
2023-01-07T02:04:25.617Z,82.68
2023-01-07T02:06:56.249Z,82.17
2023-01-07T02:09:22.730Z,82.69
2023-01-07T02:12:17.200Z,82.84
2023-01-07T02:15:10.310Z,82.32
2023-01-07T02:17:50.939Z,82.60
2023-01-07T02:20:26.035Z,82.71
2023-01-07T02:23:11.100Z,82.32
2023-01-07T02:25:58.707Z,82.38
2023-01-07T02:28:45.095Z,82.29
2023-01-07T02:31:49.230Z,82.84
2023-01-07T02:34:54.616Z,83.06
2023-01-07T02:37:23.822Z,83.00
2023-01-07T02:40:16.187Z,82.33
2023-01-07T02:42:46.400Z,82.35
2023-01-07T02:45:23.878Z,82.39
2023-01-07T02:47:54.460Z,82.43
2023-01-07T02:50:20.871Z,82.28
2023-01-07T02:52:47.278Z,82.54
2023-01-07T02:55:15.655Z,81.95
2023-01-07T02:57:48.102Z,82.24
2023-01-07T03:00:36.226Z,81.96
2023-01-07T03:03:13.365Z,82.31
2023-01-07T03:06:02.141Z,82.50
2023-01-07T03:08:36.487Z,82.40
2023-01-07T03:11:05.216Z,82.28
2023-01-07T03:13:47.686Z,82.52
2023-01-07T03:16:25.361Z,82.78
2023-01-07T03:19:09.843Z,83.10
2023-01-07T03:21:36.766Z,82.87
2023-01-07T03:24:03.342Z,83.31
2023-01-07T03:26:36.475Z,82.95
2023-01-07T03:29:04.704Z,82.79
2023-01-07T03:31:31.567Z,82.19
2023-01-07T03:34:00.814Z,82.99
2023-01-07T03:36:31.139Z,82.54
2023-01-07T03:38:57.765Z,81.99
2023-01-07T03:41:42.769Z,82.84
2023-01-07T03:44:09.239Z,82.52
2023-01-07T03:46:36.983Z,82.35
2023-01-07T03:49:03.695Z,82.20
2023-01-07T03:51:30.101Z,82.06
2023-01-07T03:53:56.591Z,83.05
2023-01-07T03:56:22.989Z,82.67
2023-01-07T03:58:49.384Z,82.10
2023-01-07T04:01:15.854Z,82.24
2023-01-07T04:03:42.271Z,81.99
2023-01-07T04:06:08.837Z,82.22
2023-01-07T04:08:37.058Z,82.14
2023-01-07T04:11:04.006Z,82.46
2023-01-07T04:13:30.452Z,81.71
2023-01-07T04:15:56.848Z,82.21
2023-01-07T04:18:23.177Z,81.78
2023-01-07T04:20:49.503Z,82.33
2023-01-07T04:23:16.236Z,82.56
2023-01-07T04:25:42.637Z,82.21
2023-01-07T04:28:09.004Z,81.92
2023-01-07T04:30:35.810Z,83.15
2023-01-07T04:33:02.369Z,82.53
2023-01-07T04:35:28.760Z,82.25
2023-01-07T04:37:55.151Z,82.93
2023-01-07T04:40:21.554Z,82.34
2023-01-07T04:42:47.882Z,83.08
2023-01-07T04:45:14.239Z,83.05
2023-01-07T04:47:40.622Z,82.42
2023-01-07T04:50:07.326Z,83.11
2023-01-07T04:52:33.752Z,82.89
2023-01-07T04:55:00.147Z,83.20
2023-01-07T04:57:27.572Z,82.66
2023-01-07T04:59:53.907Z,82.25
2023-01-07T05:02:20.391Z,82.36
2023-01-07T05:04:47.140Z,82.48
2023-01-07T05:07:13.524Z,82.41
2023-01-07T05:09:39.859Z,82.59
2023-01-07T05:12:06.255Z,82.44
2023-01-07T05:14:32.766Z,82.82
2023-01-07T05:16:59.170Z,82.22
2023-01-07T05:19:25.515Z,82.98
2023-01-07T05:21:51.904Z,83.11
2023-01-07T05:24:18.341Z,82.63
2023-01-07T05:26:44.681Z,81.94
2023-01-07T05:29:11.059Z,82.55
2023-01-07T05:31:37.424Z,82.73
2023-01-07T05:34:03.793Z,82.74
2023-01-07T05:36:30.151Z,82.43
2023-01-07T05:38:56.597Z,82.87
2023-01-07T05:41:22.969Z,82.47
2023-01-07T05:43:49.436Z,82.88
2023-01-07T05:46:15.863Z,82.28
2023-01-07T05:48:42.334Z,82.77
2023-01-07T05:51:08.713Z,82.05
2023-01-07T05:53:35.095Z,81.93
2023-01-07T05:56:01.567Z,82.83
2023-01-07T05:58:28.324Z,82.38
2023-01-07T06:00:55.346Z,81.48
2023-01-07T06:03:22.105Z,82.14
2023-01-07T06:05:48.623Z,82.29
2023-01-07T06:08:15.407Z,82.52
2023-01-07T06:10:42.422Z,82.69
2023-01-07T06:13:08.769Z,82.63
2023-01-07T06:15:35.272Z,82.53
2023-01-07T06:18:01.736Z,82.73
2023-01-07T06:20:29.712Z,82.87
2023-01-07T06:22:56.063Z,83.16
2023-01-07T06:25:22.474Z,82.76
2023-01-07T06:27:48.870Z,82.61
2023-01-07T06:30:15.214Z,82.63
2023-01-07T06:32:43.077Z,83.28
2023-01-07T06:35:11.054Z,82.74
2023-01-07T06:37:38.662Z,83.17
2023-01-07T06:40:06.195Z,83.37
2023-01-07T06:42:32.538Z,82.54
2023-01-07T06:44:58.866Z,83.24
2023-01-07T06:47:25.730Z,83.78
2023-01-07T06:49:52.493Z,83.28
2023-01-07T06:52:18.882Z,83.84
2023-01-07T06:54:47.550Z,83.49
2023-01-07T06:57:14.703Z,83.68
2023-01-07T06:59:41.126Z,84.02
2023-01-07T07:02:07.523Z,83.70
2023-01-07T07:04:33.881Z,83.61
2023-01-07T07:07:00.347Z,84.04
2023-01-07T07:09:26.726Z,83.91
2023-01-07T07:11:53.107Z,84.29
2023-01-07T07:14:19.444Z,84.04
2023-01-07T07:16:45.793Z,83.64
2023-01-07T07:19:12.226Z,83.72
2023-01-07T07:21:38.588Z,83.95
2023-01-07T07:24:05.266Z,83.94
2023-01-07T07:26:31.610Z,83.83
2023-01-07T07:28:57.977Z,84.43
2023-01-07T07:31:24.393Z,83.94
2023-01-07T07:33:50.816Z,84.07
2023-01-07T07:36:17.125Z,84.14
2023-01-07T07:38:43.510Z,84.07
2023-01-07T07:41:09.926Z,83.85
2023-01-07T07:43:36.575Z,84.21
2023-01-07T07:46:03.110Z,83.97
2023-01-07T07:48:29.512Z,83.58
2023-01-07T07:50:55.936Z,84.12
2023-01-07T07:53:23.594Z,83.80
2023-01-07T07:55:50.007Z,83.76
2023-01-07T07:58:16.340Z,84.12
2023-01-07T08:00:42.749Z,84.11
2023-01-07T08:03:10.312Z,84.52
2023-01-07T08:05:41.161Z,83.64
2023-01-07T08:08:09.301Z,83.97
2023-01-07T08:10:35.683Z,84.35
2023-01-07T08:13:02.051Z,83.48
2023-01-07T08:15:28.419Z,83.75
2023-01-07T08:18:13.017Z,83.53
2023-01-07T08:20:39.622Z,84.05
2023-01-07T08:23:07.357Z,83.51
2023-01-07T08:25:35.757Z,83.30
2023-01-07T08:28:02.835Z,83.16
2023-01-07T08:30:30.065Z,83.30
2023-01-07T08:32:57.103Z,83.02
2023-01-07T08:35:23.497Z,83.11
2023-01-07T08:37:49.966Z,83.95
2023-01-07T08:40:16.330Z,83.30
2023-01-07T08:42:42.716Z,83.75
2023-01-07T08:45:10.624Z,83.83
2023-01-07T08:47:37.017Z,82.49
2023-01-07T08:50:04.219Z,81.96
2023-01-07T08:52:30.568Z,81.95
2023-01-07T08:54:56.912Z,81.10
2023-01-07T08:57:23.377Z,81.55
2023-01-07T08:59:49.709Z,81.29
2023-01-07T09:02:18.320Z,81.08
2023-01-07T09:04:44.824Z,80.29
2023-01-07T09:07:11.567Z,79.88
2023-01-07T09:09:38.232Z,79.62
2023-01-07T09:12:06.073Z,79.68
2023-01-07T09:14:32.495Z,79.36
2023-01-07T09:16:58.836Z,78.73
2023-01-07T09:19:25.446Z,78.49
2023-01-07T09:21:51.836Z,77.83
2023-01-07T09:24:18.338Z,76.70
2023-01-07T09:26:44.720Z,76.74
2023-01-07T09:29:11.052Z,76.95
2023-01-07T09:31:37.451Z,75.81
2023-01-07T09:34:03.868Z,76.51
2023-01-07T09:36:30.252Z,76.49
2023-01-07T09:38:56.635Z,76.23
2023-01-07T09:41:42.828Z,75.97
2023-01-07T09:44:33.600Z,75.54
2023-01-07T09:47:00.495Z,76.48
2023-01-07T09:49:29.668Z,75.34
2023-01-07T09:52:00.562Z,76.17
2023-01-07T09:54:28.841Z,76.40
2023-01-07T09:56:55.301Z,75.80
2023-01-07T09:59:21.843Z,75.45
2023-01-07T10:01:55.411Z,74.98
2023-01-07T10:04:49.628Z,75.60
2023-01-07T10:07:44.671Z,75.38
2023-01-07T10:10:30.045Z,74.64
2023-01-07T10:13:19.983Z,74.60
2023-01-07T10:15:55.435Z,74.10
2023-01-07T10:18:34.873Z,74.39
2023-01-07T10:21:13.425Z,73.39
2023-01-07T10:23:42.532Z,73.65
2023-01-07T10:26:22.634Z,72.78
2023-01-07T10:28:53.529Z,72.83
2023-01-07T10:31:22.828Z,72.74
2023-01-07T10:33:49.591Z,72.08
2023-01-07T10:36:32.247Z,71.83
2023-01-07T10:39:10.695Z,71.74
2023-01-07T10:41:53.282Z,70.84
2023-01-07T10:44:25.772Z,70.72
2023-01-07T10:47:15.298Z,70.90
2023-01-07T10:50:09.432Z,70.82
2023-01-07T10:52:48.930Z,70.23
2023-01-07T10:55:43.428Z,69.94
2023-01-07T10:58:11.189Z,70.08
2023-01-07T11:00:39.115Z,70.31
2023-01-07T11:03:15.740Z,69.68
2023-01-07T11:05:42.090Z,69.75
2023-01-07T11:08:16.349Z,70.13
2023-01-07T11:10:42.794Z,69.41
2023-01-07T11:13:16.623Z,69.97
2023-01-07T11:15:56.215Z,68.96
2023-01-07T11:18:30.380Z,69.01
2023-01-07T11:20:58.229Z,68.78
2023-01-07T11:23:27.541Z,69.28
2023-01-07T11:25:54.733Z,68.84
2023-01-07T11:28:26.642Z,68.56
2023-01-07T11:31:00.915Z,68.73
2023-01-07T11:34:01.267Z,67.82
2023-01-07T11:36:17.243Z,67.89
2023-01-07T11:38:44.499Z,68.40
2023-01-07T11:41:23.963Z,68.57
2023-01-07T11:43:53.341Z,67.86
2023-01-07T11:46:23.424Z,67.64
2023-01-07T11:48:58.033Z,68.04
2023-01-07T11:51:24.836Z,68.17
2023-01-07T11:53:59.254Z,67.00
2023-01-07T11:56:28.157Z,67.40
2023-01-07T11:59:25.995Z,66.88
2023-01-07T12:01:59.237Z,67.69
2023-01-07T12:04:29.408Z,67.08
2023-01-07T12:07:24.187Z,68.25
2023-01-07T12:09:50.697Z,67.72
2023-01-07T12:12:39.166Z,68.06
2023-01-07T12:15:21.642Z,67.47
2023-01-07T12:17:52.397Z,67.24
2023-01-07T12:20:37.206Z,68.06
2023-01-07T12:23:21.575Z,67.79
2023-01-07T12:25:52.469Z,68.16
2023-01-07T12:28:36.460Z,68.33
2023-01-07T12:31:05.767Z,67.23
2023-01-07T12:33:47.374Z,67.59
2023-01-07T12:36:19.943Z,67.85
2023-01-07T12:38:55.390Z,67.71
2023-01-07T12:41:32.493Z,67.50
2023-01-07T12:44:20.279Z,68.27
2023-01-07T12:47:30.447Z,68.35
2023-01-07T12:50:11.433Z,68.27
2023-01-07T12:52:44.787Z,68.31
2023-01-07T12:55:21.303Z,67.88
2023-01-07T12:58:11.873Z,67.87
2023-01-07T13:00:52.924Z,68.24
2023-01-07T13:03:31.708Z,68.33
2023-01-07T13:06:14.417Z,68.70
2023-01-07T13:08:42.958Z,69.18
2023-01-07T13:11:16.152Z,68.91
2023-01-07T13:13:47.332Z,68.42
2023-01-07T13:16:13.907Z,68.70
2023-01-07T13:18:40.369Z,68.66
2023-01-07T13:21:10.513Z,68.64
2023-01-07T13:24:07.704Z,69.23
2023-01-07T13:26:56.420Z,69.08
2023-01-07T13:29:37.881Z,68.84
2023-01-07T13:32:10.306Z,69.61
2023-01-07T13:35:09.233Z,69.08
2023-01-07T13:37:57.759Z,69.03
2023-01-07T13:40:40.464Z,69.22
2023-01-07T13:43:29.277Z,68.90
2023-01-07T13:45:59.209Z,69.28
2023-01-07T13:48:27.365Z,69.22
2023-01-07T13:51:00.641Z,69.16
2023-01-07T13:53:26.902Z,68.93
2023-01-07T13:55:57.719Z,68.85
2023-01-07T13:58:30.169Z,69.32
2023-01-07T14:01:04.725Z,68.73
2023-01-07T14:03:44.223Z,69.22
2023-01-07T14:06:19.927Z,68.96
2023-01-07T14:08:53.208Z,69.06
2023-01-07T14:11:41.998Z,69.21
2023-01-07T14:14:32.865Z,69.26
2023-01-07T14:17:19.220Z,69.35
2023-01-07T14:20:00.606Z,68.81
2023-01-07T14:22:45.630Z,69.13
2023-01-07T14:25:28.252Z,69.29
2023-01-07T14:28:13.261Z,69.29
2023-01-07T14:30:48.042Z,69.55
2023-01-07T14:33:20.593Z,69.00
2023-01-07T14:36:06.285Z,69.31
2023-01-07T14:38:32.722Z,69.98
2023-01-07T14:41:16.088Z,69.65
2023-01-07T14:43:48.479Z,69.51
2023-01-07T14:46:24.157Z,69.96
2023-01-07T14:49:02.873Z,69.31
2023-01-07T14:51:56.558Z,69.89
2023-01-07T14:54:59.458Z,70.37
2023-01-07T14:57:51.038Z,70.14
2023-01-07T15:00:55.344Z,69.39
2023-01-07T15:03:42.954Z,69.30
2023-01-07T15:06:25.031Z,69.45
2023-01-07T15:09:29.738Z,69.22
2023-01-07T15:12:18.353Z,69.27
2023-01-07T15:15:19.254Z,69.18
2023-01-07T15:17:45.692Z,69.14
2023-01-07T15:20:12.130Z,68.63
2023-01-07T15:23:10.656Z,69.43
2023-01-07T15:26:00.631Z,68.72
2023-01-07T15:28:43.724Z,69.42
2023-01-07T15:31:22.763Z,69.09
2023-01-07T15:33:59.221Z,68.59
2023-01-07T15:36:25.973Z,68.53
2023-01-07T15:38:53.783Z,69.48
2023-01-07T15:41:32.857Z,69.24
2023-01-07T15:44:02.185Z,69.18
2023-01-07T15:46:30.220Z,69.83
2023-01-07T15:49:09.059Z,68.34
2023-01-07T15:51:40.508Z,68.91
2023-01-07T15:54:23.954Z,69.48
2023-01-07T15:56:52.943Z,69.57
2023-01-07T15:59:25.396Z,69.95
2023-01-07T16:01:54.607Z,70.03
2023-01-07T16:04:31.281Z,70.35
2023-01-07T16:06:59.328Z,69.92
2023-01-07T16:09:26.237Z,69.91
2023-01-07T16:11:52.909Z,70.47
2023-01-07T16:14:25.322Z,70.04
2023-01-07T16:17:19.459Z,70.16
2023-01-07T16:19:46.001Z,70.29
2023-01-07T16:22:21.101Z,70.80
2023-01-07T16:24:52.192Z,71.32
2023-01-07T16:27:28.534Z,71.03
2023-01-07T16:29:57.566Z,70.95
2023-01-07T16:32:24.530Z,71.11
2023-01-07T16:35:08.960Z,70.80
2023-01-07T16:37:38.946Z,71.07
2023-01-07T16:40:13.163Z,71.32
2023-01-07T16:42:41.409Z,71.05
2023-01-07T16:45:22.261Z,71.90
2023-01-07T16:48:00.121Z,72.01
2023-01-07T16:50:35.896Z,71.31
2023-01-07T16:53:02.280Z,72.21
2023-01-07T16:55:54.428Z,72.43
2023-01-07T16:58:30.999Z,72.22
2023-01-07T17:00:59.850Z,73.21
2023-01-07T17:03:26.876Z,72.38
2023-01-07T17:06:02.484Z,72.81
2023-01-07T17:08:29.848Z,73.12
2023-01-07T17:10:58.899Z,73.57
2023-01-07T17:13:25.127Z,73.05
2023-01-07T17:15:51.657Z,73.79
2023-01-07T17:18:18.109Z,74.52
2023-01-07T17:20:47.546Z,74.89
2023-01-07T17:23:26.148Z,76.33
2023-01-07T17:25:58.029Z,76.93
2023-01-07T17:28:25.872Z,76.91
2023-01-07T17:30:52.166Z,76.50
2023-01-07T17:33:21.108Z,76.02
2023-01-07T17:35:47.881Z,77.78
2023-01-07T17:38:15.173Z,76.89
2023-01-07T17:40:44.255Z,78.52
2023-01-07T17:43:37.665Z,78.75
2023-01-07T17:46:04.926Z,78.02
2023-01-07T17:48:32.292Z,78.17
2023-01-07T17:51:00.533Z,78.25
2023-01-07T17:53:30.478Z,79.51
2023-01-07T17:55:57.145Z,78.82
2023-01-07T17:58:26.809Z,79.07
2023-01-07T18:00:53.809Z,79.30
2023-01-07T18:03:20.721Z,79.73
2023-01-07T18:05:47.090Z,79.92
2023-01-07T18:08:14.507Z,79.82
2023-01-07T18:11:00.056Z,80.66
2023-01-07T18:13:28.812Z,80.80
2023-01-07T18:15:59.014Z,81.23
2023-01-07T18:18:26.068Z,81.02
2023-01-07T18:20:54.008Z,80.91
2023-01-07T18:23:20.734Z,81.22
2023-01-07T18:25:47.096Z,81.62
2023-01-07T18:28:13.760Z,81.37
2023-01-07T18:30:40.432Z,81.04
2023-01-07T18:33:08.459Z,81.50
2023-01-07T18:35:35.670Z,82.46
2023-01-07T18:38:02.160Z,83.33
2023-01-07T18:40:28.508Z,82.49
2023-01-07T18:42:56.213Z,82.68
2023-01-07T18:45:23.011Z,82.75
2023-01-07T18:47:49.816Z,82.38
2023-01-07T18:50:16.539Z,83.10
2023-01-07T18:52:43.163Z,82.57
2023-01-07T18:55:10.458Z,82.35
2023-01-07T18:57:36.947Z,82.14
2023-01-07T19:00:07.218Z,82.73
2023-01-07T19:02:33.773Z,83.38
2023-01-07T19:05:00.175Z,82.72
2023-01-07T19:07:26.511Z,83.25
2023-01-07T19:09:52.878Z,83.13
2023-01-07T19:12:19.466Z,81.82
2023-01-07T19:14:45.903Z,82.29
2023-01-07T19:17:12.228Z,81.84
2023-01-07T19:19:47.964Z,81.92
2023-01-07T19:22:15.878Z,83.29
2023-01-07T19:24:43.433Z,84.20
2023-01-07T19:27:10.302Z,83.15
2023-01-07T19:29:36.677Z,83.89
2023-01-07T19:32:03.099Z,83.18
2023-01-07T19:34:29.547Z,83.47
2023-01-07T19:36:55.993Z,82.65
2023-01-07T19:39:23.296Z,83.42
2023-01-07T19:41:50.411Z,82.54
2023-01-07T19:44:17.020Z,81.63
2023-01-07T19:46:43.977Z,83.07
2023-01-07T19:49:11.446Z,82.67
2023-01-07T19:51:39.598Z,83.22
2023-01-07T19:54:06.908Z,82.88
2023-01-07T19:56:33.493Z,83.59
2023-01-07T19:59:00.298Z,82.61
2023-01-07T20:01:28.422Z,83.47
2023-01-07T20:03:56.061Z,82.86
2023-01-07T20:06:28.549Z,83.46
2023-01-07T20:08:56.472Z,83.17
2023-01-07T20:11:23.716Z,82.22
2023-01-07T20:13:50.775Z,82.87
2023-01-07T20:16:18.443Z,83.08
2023-01-07T20:18:47.364Z,83.53
2023-01-07T20:21:16.302Z,83.33
2023-01-07T20:23:42.789Z,83.97
2023-01-07T20:26:11.874Z,84.24
2023-01-07T20:28:38.402Z,83.99
2023-01-07T20:31:09.258Z,84.50
2023-01-07T20:33:35.699Z,84.18
2023-01-07T20:36:04.051Z,83.94
2023-01-07T20:38:30.419Z,84.36
2023-01-07T20:40:57.040Z,84.20
2023-01-07T20:43:24.406Z,84.15
2023-01-07T20:45:50.835Z,84.55
2023-01-07T20:48:17.377Z,84.70
2023-01-07T20:50:43.807Z,84.76
2023-01-07T20:53:10.688Z,84.55
2023-01-07T20:55:37.148Z,84.31
2023-01-07T20:58:03.763Z,84.50
2023-01-07T21:00:30.208Z,84.44
2023-01-07T21:02:56.660Z,85.01
2023-01-07T21:05:24.351Z,84.40
2023-01-07T21:07:51.489Z,84.28
2023-01-07T21:10:18.905Z,83.93
2023-01-07T21:12:46.291Z,84.00
2023-01-07T21:15:14.888Z,83.69
2023-01-07T21:17:41.624Z,83.86
2023-01-07T21:20:11.348Z,83.62
2023-01-07T21:22:38.811Z,84.31
2023-01-07T21:25:08.652Z,83.49
2023-01-07T21:27:35.223Z,83.55
2023-01-07T21:30:03.687Z,83.05
2023-01-07T21:32:31.433Z,82.22
2023-01-07T21:34:57.785Z,83.78
2023-01-07T21:37:24.277Z,82.72
2023-01-07T21:39:51.304Z,82.87
2023-01-07T21:42:17.745Z,83.08
2023-01-07T21:44:44.269Z,84.04
2023-01-07T21:47:10.762Z,83.39
2023-01-07T21:49:37.129Z,82.85
2023-01-07T21:52:03.524Z,81.69
2023-01-07T21:54:29.936Z,81.99
2023-01-07T21:56:56.278Z,82.40
2023-01-07T21:59:22.667Z,81.16
2023-01-07T22:01:49.195Z,82.14
2023-01-07T22:04:15.967Z,81.69
2023-01-07T22:06:42.504Z,81.38
2023-01-07T22:09:13.887Z,80.89
2023-01-07T22:11:41.764Z,80.95
2023-01-07T22:14:09.759Z,80.68
2023-01-07T22:16:36.149Z,81.30
2023-01-07T22:19:02.855Z,80.99
2023-01-07T22:21:30.501Z,81.33
2023-01-07T22:23:56.883Z,81.16
2023-01-07T22:26:23.597Z,80.39
2023-01-07T22:28:52.994Z,81.37
2023-01-07T22:31:20.716Z,81.29
2023-01-07T22:33:47.154Z,81.96
2023-01-07T22:36:16.022Z,81.58
2023-01-07T22:38:42.375Z,81.47
2023-01-07T22:41:09.205Z,82.16
2023-01-07T22:43:36.447Z,81.97
2023-01-07T22:46:07.670Z,82.98
2023-01-07T22:48:35.534Z,83.44
2023-01-07T22:51:15.295Z,84.24
2023-01-07T22:53:41.714Z,84.48
2023-01-07T22:56:08.210Z,84.70
2023-01-07T22:58:34.611Z,84.78
2023-01-07T23:01:03.993Z,85.28
2023-01-07T23:03:30.460Z,85.59
2023-01-07T23:05:56.916Z,85.92
2023-01-07T23:08:23.425Z,86.04
2023-01-07T23:10:49.766Z,86.27
2023-01-07T23:13:16.137Z,86.08
2023-01-07T23:15:42.513Z,86.39
2023-01-07T23:18:09.794Z,86.07
2023-01-07T23:20:40.861Z,86.72
2023-01-07T23:23:07.618Z,86.45
2023-01-07T23:25:35.377Z,86.45
2023-01-07T23:28:01.906Z,86.88
2023-01-07T23:30:28.286Z,86.37
2023-01-07T23:32:54.641Z,86.67
2023-01-07T23:35:21.101Z,86.54
2023-01-07T23:37:47.479Z,86.70
2023-01-07T23:40:13.925Z,86.48
2023-01-07T23:42:40.883Z,87.34
2023-01-07T23:45:07.657Z,87.41
2023-01-07T23:47:34.153Z,86.45
2023-01-07T23:50:00.544Z,86.69
2023-01-07T23:52:26.966Z,86.59
2023-01-07T23:54:53.352Z,86.56
2023-01-07T23:57:19.763Z,87.23
2023-01-07T23:59:46.127Z,87.16
